»·PEaware :: N2710U CZBB-S50

N2710U :: CZBB-S50

FLIGHT INFORMATION

Flight Status: Arrived
Operator: Privately registered:
United States
More flights under this callsign
Pilot: Nathan P. (3026)
Aircraft: CESSNA T210 TURBO CENTURION
(T210)
More flights by this aircraft type
Origin: CZBB Boundary Bay
Canada
Destination: S50 Auburn Mun
United States
More flights between these airports :: More routes between these airports
Route: +CVV V165 CARRO
File this flight plan on PilotEdge
Remarks:
Altitude:
(Current/Filed)
5,000ft
Speed:
(Current/Filed)
140kts
Departed: 03-Nov-20 01:37 PM
Arrived: 03-Nov-20 03:06 PM
Distance/Time
Traveled:
109nm/1:29
Distance/Time
To Go:
Arrived

Flight Plot

Page will automatically refresh every two minutes.

Flight plan parsing failed; only flown route is shown


Map Options




Map Legend


Flown Route
Filed Route
Departure Airport
Arrival Airport
Navaid (VOR, NDB)
Fix

Horizontal Profiles

Position Reports

Time Latitude Longitude Heading Altitude Ground
Speed
03-Nov-20 13:19 49.080020 -123.008425 269 13ft 0kts
03-Nov-20 13:20 49.080020 -123.008425 269 13ft 0kts
03-Nov-20 13:21 49.080020 -123.008425 269 13ft 0kts
03-Nov-20 13:22 49.080020 -123.008425 269 13ft 0kts
03-Nov-20 13:23 49.080020 -123.008425 269 13ft 0kts
03-Nov-20 13:24 49.080020 -123.008425 269 13ft 0kts
03-Nov-20 13:25 49.080020 -123.008425 269 13ft 0kts
03-Nov-20 13:26 49.080020 -123.008425 269 13ft 0kts
03-Nov-20 13:27 49.080020 -123.008425 269 13ft 0kts
03-Nov-20 13:28 49.080020 -123.008425 269 13ft 0kts
03-Nov-20 13:29 49.080020 -123.008425 269 13ft 0kts
03-Nov-20 13:31 49.080020 -123.008425 269 13ft 0kts
03-Nov-20 13:32 49.080020 -123.008425 269 13ft 0kts
03-Nov-20 13:33 49.080020 -123.008425 269 13ft 0kts
03-Nov-20 13:34 49.079966 -123.008645 238 13ft 0kts
03-Nov-20 13:35 49.079165 -123.013033 268 13ft 19kts
03-Nov-20 13:36 49.078869 -123.017470 225 17ft 13kts
03-Nov-20 13:37 49.077832 -123.001457 90 102ft 88kts
03-Nov-20 13:38 49.067223 -122.972432 133 791ft 88kts
03-Nov-20 13:39 49.053775 -122.941066 116 1502ft 90kts
03-Nov-20 13:40 49.043157 -122.905818 117 2197ft 92kts
03-Nov-20 13:41 49.030918 -122.871753 128 2890ft 91kts
03-Nov-20 13:42 49.016833 -122.839764 126 3571ft 91kts
03-Nov-20 13:43 48.998988 -122.816057 127 4250ft 90kts
03-Nov-20 13:44 48.989979 -122.780026 120 4927ft 91kts
03-Nov-20 13:45 48.979862 -122.735216 116 4997ft 130kts
03-Nov-20 13:46 48.967687 -122.679975 115 4994ft 142kts
03-Nov-20 13:47 48.954922 -122.622440 115 4996ft 143kts
03-Nov-20 13:48 48.939217 -122.568333 150 4996ft 135kts
03-Nov-20 13:49 48.917359 -122.599690 284 5003ft 166kts
03-Nov-20 13:49 48.931185 -122.652168 286 4993ft 156kts
03-Nov-20 13:51 48.962157 -122.636430 112 4998ft 126kts
03-Nov-20 13:51 48.950899 -122.597262 121 4996ft 121kts
03-Nov-20 13:53 48.920391 -122.571420 167 4995ft 114kts
03-Nov-20 13:53 48.894489 -122.563864 167 5000ft 113kts
03-Nov-20 13:55 48.858024 -122.552935 167 5001ft 115kts
03-Nov-20 13:55 48.831814 -122.545084 167 5001ft 115kts
03-Nov-20 13:56 48.800182 -122.535606 168 5001ft 116kts
03-Nov-20 13:57 48.768466 -122.526148 168 5002ft 116kts
03-Nov-20 13:58 48.736887 -122.516778 168 5002ft 115kts
03-Nov-20 13:59 48.705388 -122.507435 168 5004ft 115kts
03-Nov-20 14:00 48.674057 -122.498052 169 5004ft 114kts
03-Nov-20 14:01 48.642816 -122.488755 169 5005ft 114kts
03-Nov-20 14:02 48.611653 -122.479567 170 5001ft 115kts
03-Nov-20 14:03 48.580112 -122.470247 170 5003ft 116kts
03-Nov-20 14:04 48.548693 -122.460858 170 4997ft 115kts
03-Nov-20 14:05 48.517297 -122.451685 170 4999ft 114kts
03-Nov-20 14:06 48.486027 -122.442516 168 4998ft 114kts
03-Nov-20 14:07 48.460745 -122.461862 233 5337ft 116kts
03-Nov-20 14:08 48.444176 -122.494783 210 6193ft 87kts
03-Nov-20 14:09 48.426649 -122.515387 209 6990ft 79kts
03-Nov-20 14:10 48.403682 -122.541668 212 7006ft 122kts
03-Nov-20 14:11 48.375256 -122.574587 213 7001ft 133kts
03-Nov-20 14:12 48.347102 -122.607181 212 6996ft 121kts
03-Nov-20 14:13 48.321071 -122.636967 212 6998ft 115kts
03-Nov-20 14:14 48.295775 -122.665835 212 6998ft 113kts
03-Nov-20 14:15 48.270770 -122.694397 212 6997ft 113kts
03-Nov-20 14:16 48.245422 -122.722792 203 6986ft 112kts
03-Nov-20 14:17 48.214439 -122.728798 186 6989ft 113kts
03-Nov-20 14:18 48.183025 -122.733013 187 6988ft 113kts
03-Nov-20 14:19 48.151618 -122.737458 187 6991ft 113kts
03-Nov-20 14:20 48.120139 -122.741914 187 6962ft 114kts
03-Nov-20 14:21 48.088527 -122.746395 186 6962ft 113kts
03-Nov-20 14:22 48.057054 -122.750837 188 6960ft 113kts
03-Nov-20 14:23 48.025829 -122.755242 187 6957ft 113kts
03-Nov-20 14:24 47.994598 -122.759803 186 6961ft 112kts
03-Nov-20 14:25 47.963300 -122.764158 188 6966ft 113kts
03-Nov-20 14:26 47.931716 -122.768599 189 6974ft 114kts
03-Nov-20 14:27 47.899807 -122.773090 190 6981ft 116kts
03-Nov-20 14:28 47.867051 -122.777716 191 6995ft 120kts
03-Nov-20 14:29 47.833445 -122.782445 191 7002ft 122kts
03-Nov-20 14:30 47.799290 -122.787246 191 7002ft 124kts
03-Nov-20 14:31 47.764870 -122.792070 191 7002ft 124kts
03-Nov-20 14:32 47.730315 -122.796907 191 7001ft 124kts
03-Nov-20 14:33 47.695790 -122.801737 191 7001ft 124kts
03-Nov-20 14:34 47.661311 -122.806552 191 7001ft 124kts
03-Nov-20 14:35 47.626878 -122.811450 191 7001ft 124kts
03-Nov-20 14:36 47.592501 -122.816225 191 7001ft 124kts
03-Nov-20 14:37 47.558058 -122.821023 191 7000ft 124kts
03-Nov-20 14:38 47.523536 -122.824863 174 6995ft 130kts
03-Nov-20 14:39 47.488425 -122.795131 157 6496ft 157kts
03-Nov-20 14:40 47.450049 -122.761892 155 5810ft 161kts
03-Nov-20 14:41 47.411707 -122.728694 153 5112ft 158kts
03-Nov-20 14:42 47.376409 -122.698130 151 4995ft 136kts
03-Nov-20 14:43 47.344752 -122.670811 149 4997ft 129kts
03-Nov-20 14:44 47.313810 -122.644150 148 4998ft 128kts
03-Nov-20 14:45 47.283016 -122.617660 148 4998ft 128kts
03-Nov-20 14:46 47.252070 -122.591074 147 4864ft 137kts
03-Nov-20 14:47 47.214111 -122.558497 147 4181ft 175kts
03-Nov-20 14:48 47.172689 -122.523087 147 3997ft 164kts
03-Nov-20 14:49 47.133893 -122.489855 148 3999ft 159kts
03-Nov-20 14:50 47.095749 -122.457317 149 4000ft 158kts
03-Nov-20 14:51 47.058024 -122.425210 149 4000ft 158kts
03-Nov-20 14:52 47.021687 -122.390168 117 4001ft 156kts
03-Nov-20 14:53 47.034807 -122.333838 47 3478ft 165kts
03-Nov-20 14:54 47.064170 -122.281245 48 3001ft 159kts
03-Nov-20 14:55 47.090819 -122.233306 47 3004ft 146kts
03-Nov-20 14:56 47.116143 -122.187656 47 3008ft 143kts
03-Nov-20 14:57 47.153291 -122.178688 348 2548ft 157kts
03-Nov-20 14:58 47.197172 -122.191056 349 2104ft 154kts
03-Nov-20 14:59 47.232733 -122.201133 350 2099ft 110kts
03-Nov-20 15:00 47.262571 -122.209492 351 1812ft 122kts
03-Nov-20 15:01 47.293105 -122.225862 356 1196ft 127kts
03-Nov-20 15:02 47.314572 -122.222249 28 826ft 82kts
03-Nov-20 15:03 47.333856 -122.218214 5 769ft 93kts
03-Nov-20 15:04 47.338508 -122.226664 178 236ft 75kts
03-Nov-20 15:05 47.329670 -122.226058 91 66ft 0kts
03-Nov-20 15:06 47.329022 -122.225683 182 66ft 9kts
03-Nov-20 15:07 47.326694 -122.225428 267 66ft 0kts
03-Nov-20 15:08 47.326694 -122.225428 267 66ft 0kts
03-Nov-20 15:09 47.326694 -122.225428 267 66ft 0kts
03-Nov-20 15:10 47.326694 -122.225428 267 66ft 0kts
03-Nov-20 15:11 47.326694 -122.225428 267 66ft 0kts
03-Nov-20 15:12 47.326694 -122.225428 267 66ft 0kts
03-Nov-20 15:13 47.326694 -122.225428 267 66ft 0kts
03-Nov-20 15:14 47.326694 -122.225428 267 66ft 0kts
03-Nov-20 15:15 47.326694 -122.225428 267 66ft 0kts
03-Nov-20 15:16 47.326694 -122.225428 267 66ft 0kts
03-Nov-20 15:17 47.326694 -122.225428 267 66ft 0kts
03-Nov-20 15:18 47.326694 -122.225428 267 66ft 0kts
03-Nov-20 15:19 47.326694 -122.225428 267 66ft 0kts

Navigation Log

Ident Type
Flight plan parsing failed, navigation log unavailable